Time;durP1;ratioP1;P1;durP2;ratioP2;P2;SDS_P1;SDS_P2;PMS_P1;PMS_P2;Temp;Humidity;BMP_temperature;BMP_pressure;BME280_temperature;BME280_humidity;BME280_pressure;Samples;Min_cycle;Max_cycle;Signal;HPM_P1;HPM_P2
2022/04/27 00:00:34;;;;;;;14.93;12.37;;;;;;;;;;7387080;19;20139;-77
2022/04/27 00:03:01;;;;;;;14.00;12.43;;;;;;;;;;7385282;19;20137;-77
2022/04/27 00:05:28;;;;;;;14.50;13.00;;;;;;;;;;7386648;19;20203;-77
2022/04/27 00:07:54;;;;;;;13.20;11.80;;;;;;;;;;7388264;19;20144;-77
2022/04/27 00:10:20;;;;;;;14.23;12.73;;;;;;;;;;7391043;19;20140;-77
2022/04/27 00:12:47;;;;;;;13.77;12.47;;;;;;;;;;7388424;19;20117;-77
2022/04/27 00:15:13;;;;;;;14.33;13.00;;;;;;;;;;7390187;19;20164;-77
2022/04/27 00:17:39;;;;;;;16.70;14.80;;;;;;;;;;7387785;19;20141;-77
2022/04/27 00:20:06;;;;;;;14.73;13.27;;;;;;;;;;7386066;19;20140;-77
2022/04/27 00:22:32;;;;;;;17.90;14.07;;;;;;;;;;7383028;19;20129;-77
2022/04/27 00:25:01;;;;;;;15.90;14.20;;;;;;;;;;7385617;19;20235;-77
2022/04/27 00:27:28;;;;;;;14.00;12.70;;;;;;;;;;7385509;19;20135;-77
2022/04/27 00:29:54;;;;;;;13.83;12.47;;;;;;;;;;7386981;19;20185;-77
2022/04/27 00:32:20;;;;;;;15.17;13.77;;;;;;;;;;7384200;19;20730;-77
2022/04/27 00:34:46;;;;;;;15.00;13.27;;;;;;;;;;7383928;19;20182;-77
2022/04/27 00:37:12;;;;;;;14.30;12.80;;;;;;;;;;7385810;19;20134;-77
2022/04/27 00:39:38;;;;;;;15.10;13.50;;;;;;;;;;7383694;19;20197;-77
2022/04/27 00:42:13;;;;;;;15.27;13.67;;;;;;;;;;7389259;19;20151;-77
2022/04/27 00:44:43;;;;;;;16.60;14.90;;;;;;;;;;7390167;19;20480;-77
2022/04/27 00:47:09;;;;;;;17.37;15.40;;;;;;;;;;7391173;19;20129;-77
2022/04/27 00:49:35;;;;;;;18.87;16.87;;;;;;;;;;7394008;19;20109;-77
2022/04/27 00:52:02;;;;;;;17.43;15.63;;;;;;;;;;7384804;19;20173;-77
2022/04/27 00:54:29;;;;;;;17.20;14.93;;;;;;;;;;7383237;19;20173;-77
2022/04/27 00:56:55;;;;;;;17.13;15.40;;;;;;;;;;7391782;19;20142;-77
2022/04/27 00:59:23;;;;;;;18.40;16.50;;;;;;;;;;7393692;19;20137;-77
2022/04/27 01:01:49;;;;;;;17.47;15.60;;;;;;;;;;7382832;19;20631;-77
2022/04/27 01:04:15;;;;;;;16.07;14.40;;;;;;;;;;7382986;19;20148;-77
2022/04/27 01:06:41;;;;;;;17.77;15.80;;;;;;;;;;7381513;19;20133;-77
2022/04/27 01:09:07;;;;;;;19.20;15.20;;;;;;;;;;7383954;19;20137;-77
2022/04/27 01:11:33;;;;;;;16.97;15.27;;;;;;;;;;7386371;19;20136;-77
2022/04/27 01:14:00;;;;;;;16.20;14.63;;;;;;;;;;7384641;19;20151;-78
2022/04/27 01:16:26;;;;;;;17.60;15.77;;;;;;;;;;7384464;19;20133;-77
2022/04/27 01:18:52;;;;;;;15.83;14.20;;;;;;;;;;7395587;19;20206;-77
2022/04/27 01:21:18;;;;;;;17.40;15.60;;;;;;;;;;7399100;19;20129;-77
2022/04/27 01:23:44;;;;;;;18.73;16.73;;;;;;;;;;7408034;19;20149;-77
2022/04/27 01:26:10;;;;;;;18.40;16.57;;;;;;;;;;7409940;19;20219;-77
2022/04/27 01:28:37;;;;;;;18.37;16.47;;;;;;;;;;7407646;19;20151;-78
2022/04/27 01:31:07;;;;;;;19.87;16.73;;;;;;;;;;7409665;19;20124;-77
2022/04/27 01:33:34;;;;;;;18.03;15.93;;;;;;;;;;7391059;19;20132;-76
2022/04/27 01:36:00;;;;;;;18.43;16.63;;;;;;;;;;7386321;19;20157;-77
2022/04/27 01:38:27;;;;;;;20.17;16.83;;;;;;;;;;7382050;19;20142;-77
2022/04/27 01:40:54;;;;;;;18.40;16.60;;;;;;;;;;7384367;19;20128;-77
2022/04/27 01:43:24;;;;;;;20.37;18.27;;;;;;;;;;7382739;19;20148;-77
2022/04/27 01:45:50;;;;;;;20.37;18.30;;;;;;;;;;7383494;19;20133;-76
2022/04/27 01:48:16;;;;;;;20.70;18.40;;;;;;;;;;7390435;19;20466;-76
2022/04/27 01:50:42;;;;;;;19.80;17.30;;;;;;;;;;7398930;19;20121;-77
2022/04/27 01:55:52;;;;;;;22.17;16.67;;;;;;;;;;7418848;19;20442;-77
2022/04/27 01:58:19;;;;;;;17.30;15.47;;;;;;;;;;7423571;19;20475;-76
2022/04/27 02:00:49;;;;;;;16.27;14.60;;;;;;;;;;7417260;19;20139;-77
2022/04/27 02:03:15;;;;;;;18.07;16.27;;;;;;;;;;7395344;19;20136;-77
2022/04/27 02:05:52;;;;;;;16.90;15.17;;;;;;;;;;7387717;19;20132;-77
2022/04/27 02:08:18;;;;;;;17.23;15.43;;;;;;;;;;7388104;19;20137;-77
2022/04/27 02:10:45;;;;;;;17.37;15.30;;;;;;;;;;7388841;19;20592;-77
2022/04/27 02:13:11;;;;;;;19.00;15.63;;;;;;;;;;7383626;19;20156;-77
2022/04/27 02:15:37;;;;;;;18.57;16.77;;;;;;;;;;7382166;19;20215;-77
2022/04/27 02:18:03;;;;;;;19.10;16.77;;;;;;;;;;7393908;19;20145;-77
2022/04/27 02:20:30;;;;;;;19.20;17.23;;;;;;;;;;7406339;19;20137;-77
2022/04/27 02:22:56;;;;;;;19.43;16.73;;;;;;;;;;7398189;19;20140;-77
2022/04/27 02:25:23;;;;;;;22.37;18.20;;;;;;;;;;7403838;19;20468;-77
2022/04/27 02:27:49;;;;;;;19.67;17.63;;;;;;;;;;7405654;19;20131;-77
2022/04/27 02:30:16;;;;;;;21.30;18.33;;;;;;;;;;7400746;19;20451;-77
2022/04/27 02:32:42;;;;;;;20.00;17.90;;;;;;;;;;7394335;19;20145;-77
2022/04/27 02:35:09;;;;;;;19.80;17.57;;;;;;;;;;7383533;19;20503;-76
2022/04/27 02:37:36;;;;;;;23.60;19.07;;;;;;;;;;7379135;19;20145;-77
2022/04/27 02:40:02;;;;;;;20.83;18.63;;;;;;;;;;7383636;19;20145;-76
2022/04/27 02:42:29;;;;;;;26.03;19.43;;;;;;;;;;7406423;19;20140;-77
2022/04/27 02:44:56;;;;;;;18.53;16.73;;;;;;;;;;7409118;19;20738;-77
2022/04/27 02:47:22;;;;;;;21.23;18.93;;;;;;;;;;7391526;19;20136;-77
2022/04/27 02:52:33;;;;;;;19.87;17.80;;;;;;;;;;7400899;19;20124;-78
2022/04/27 02:54:59;;;;;;;25.10;18.60;;;;;;;;;;7406538;19;20133;-78
2022/04/27 02:57:25;;;;;;;18.63;16.70;;;;;;;;;;7405420;19;20133;-76
2022/04/27 02:59:51;;;;;;;18.60;16.60;;;;;;;;;;7402662;19;20133;-77
2022/04/27 03:02:17;;;;;;;25.83;17.53;;;;;;;;;;7401711;19;20503;-77
2022/04/27 03:04:43;;;;;;;27.30;15.97;;;;;;;;;;7378592;19;20214;-77
2022/04/27 03:07:10;;;;;;;40.67;19.07;;;;;;;;;;7376758;19;20137;-76
2022/04/27 03:09:39;;;;;;;27.57;18.10;;;;;;;;;;7380407;19;20141;-77
2022/04/27 03:12:05;;;;;;;59.83;20.93;;;;;;;;;;7379888;19;20481;-77
2022/04/27 03:14:31;;;;;;;54.97;18.37;;;;;;;;;;7378294;19;20175;-76
2022/04/27 03:16:57;;;;;;;37.07;16.93;;;;;;;;;;7380933;19;20137;-77
2022/04/27 03:19:23;;;;;;;31.43;16.67;;;;;;;;;;7381773;19;20140;-77
2022/04/27 03:21:50;;;;;;;33.07;16.50;;;;;;;;;;7376762;19;20552;-76
2022/04/27 03:24:16;;;;;;;44.07;17.73;;;;;;;;;;7384886;19;20133;-77
2022/04/27 03:26:42;;;;;;;35.07;16.97;;;;;;;;;;7377259;19;20603;-77
2022/04/27 03:29:08;;;;;;;50.07;18.40;;;;;;;;;;7380504;19;20129;-77
2022/04/27 03:31:34;;;;;;;50.87;16.50;;;;;;;;;;7379649;19;20138;-76
2022/04/27 03:34:00;;;;;;;72.77;20.93;;;;;;;;;;7391254;19;20133;-76
2022/04/27 03:36:26;;;;;;;52.97;17.70;;;;;;;;;;7393296;19;20493;-77
2022/04/27 03:38:53;;;;;;;42.27;15.97;;;;;;;;;;7387040;19;20148;-76
2022/04/27 03:41:22;;;;;;;41.43;15.60;;;;;;;;;;7391439;19;20137;-76
2022/04/27 03:43:48;;;;;;;37.63;14.40;;;;;;;;;;7395481;19;20148;-77
2022/04/27 03:46:14;;;;;;;71.87;19.13;;;;;;;;;;7406834;19;20514;-76
2022/04/27 03:48:40;;;;;;;33.07;13.43;;;;;;;;;;7394368;19;20137;-76
2022/04/27 03:51:07;;;;;;;65.00;19.07;;;;;;;;;;7391594;19;20121;-76
2022/04/27 03:53:33;;;;;;;46.60;17.80;;;;;;;;;;7389909;19;20611;-77
2022/04/27 03:55:59;;;;;;;28.63;15.97;;;;;;;;;;7387076;19;20140;-77
2022/04/27 03:58:25;;;;;;;41.90;14.60;;;;;;;;;;7391515;19;20136;-76
2022/04/27 04:00:51;;;;;;;50.90;16.67;;;;;;;;;;7394737;19;20603;-78
2022/04/27 04:03:17;;;;;;;70.47;19.37;;;;;;;;;;7399373;19;20125;-76
2022/04/27 04:05:43;;;;;;;46.30;19.73;;;;;;;;;;7403148;19;20208;-76
2022/04/27 04:08:09;;;;;;;66.67;18.07;;;;;;;;;;7403426;19;20132;-77
2022/04/27 04:10:35;;;;;;;74.13;20.10;;;;;;;;;;7397941;19;20129;-76
2022/04/27 04:13:02;;;;;;;43.03;16.93;;;;;;;;;;7392832;19;20484;-76
2022/04/27 04:15:28;;;;;;;90.23;19.07;;;;;;;;;;7385864;19;20136;-76
2022/04/27 04:17:54;;;;;;;50.93;18.33;;;;;;;;;;7384556;19;20129;-76
2022/04/27 04:20:20;;;;;;;62.13;18.70;;;;;;;;;;7383616;19;20141;-76
2022/04/27 04:22:49;;;;;;;37.73;15.83;;;;;;;;;;7383956;19;20492;-76
2022/04/27 04:30:45;;;;;;;70.73;18.73;;;;;;;;;;7389533;19;20123;-76
2022/04/27 04:33:11;;;;;;;27.10;14.70;;;;;;;;;;7385805;19;20157;-76
2022/04/27 04:35:38;;;;;;;33.90;17.73;;;;;;;;;;7388295;19;20129;-76
2022/04/27 04:38:04;;;;;;;32.87;15.67;;;;;;;;;;7391962;19;20157;-76
2022/04/27 04:40:31;;;;;;;64.37;16.83;;;;;;;;;;7391859;19;20129;-76
2022/04/27 04:42:57;;;;;;;39.40;14.90;;;;;;;;;;7389323;19;20133;-76
2022/04/27 04:45:25;;;;;;;85.77;17.13;;;;;;;;;;7386546;19;20161;-76
2022/04/27 04:47:51;;;;;;;49.83;15.23;;;;;;;;;;7392645;19;20118;-76
2022/04/27 04:50:17;;;;;;;69.87;16.50;;;;;;;;;;7390099;19;20132;-76
2022/04/27 04:52:45;;;;;;;67.43;16.53;;;;;;;;;;7389249;19;20615;-76
2022/04/27 04:55:11;;;;;;;124.70;20.23;;;;;;;;;;7391172;19;20137;-76
2022/04/27 04:57:37;;;;;;;65.40;16.47;;;;;;;;;;7390322;19;20140;-76
2022/04/27 05:00:04;;;;;;;56.47;16.23;;;;;;;;;;7389156;19;20144;-77
2022/04/27 05:02:34;;;;;;;56.07;15.17;;;;;;;;;;7387526;19;20529;-76
2022/04/27 05:05:04;;;;;;;48.10;15.40;;;;;;;;;;7388601;19;20565;-76
2022/04/27 05:07:34;;;;;;;40.97;15.40;;;;;;;;;;7391794;19;20116;-76
2022/04/27 05:10:00;;;;;;;23.07;15.57;;;;;;;;;;7390588;19;20121;-77
2022/04/27 05:12:26;;;;;;;37.07;15.77;;;;;;;;;;7387457;19;20189;-77
2022/04/27 05:14:52;;;;;;;22.43;14.83;;;;;;;;;;7390928;19;20157;-76
2022/04/27 05:17:19;;;;;;;32.97;15.77;;;;;;;;;;7390255;19;20559;-76
2022/04/27 05:19:45;;;;;;;54.07;15.30;;;;;;;;;;7390156;19;20663;-76
2022/04/27 05:22:11;;;;;;;59.63;16.93;;;;;;;;;;7391165;19;20132;-76
2022/04/27 05:24:37;;;;;;;48.50;15.17;;;;;;;;;;7389443;19;20605;-77
2022/04/27 05:27:03;;;;;;;43.60;17.47;;;;;;;;;;7392947;19;20465;-76
2022/04/27 05:32:14;;;;;;;46.30;17.70;;;;;;;;;;7391121;19;20128;-77
2022/04/27 05:34:40;;;;;;;80.90;18.17;;;;;;;;;;7385600;19;20137;-76
2022/04/27 05:37:06;;;;;;;43.87;16.90;;;;;;;;;;7387100;19;20172;-76
2022/04/27 05:39:32;;;;;;;33.43;16.33;;;;;;;;;;7383154;19;20145;-76
2022/04/27 05:41:58;;;;;;;28.27;16.60;;;;;;;;;;7388611;19;20629;-76
2022/04/27 05:44:25;;;;;;;24.87;16.33;;;;;;;;;;7388576;19;20133;-76
2022/04/27 05:46:52;;;;;;;24.90;17.30;;;;;;;;;;7389933;19;20113;-76
2022/04/27 05:49:18;;;;;;;25.57;17.13;;;;;;;;;;7390138;19;20664;-77
2022/04/27 05:51:44;;;;;;;30.87;18.37;;;;;;;;;;7389816;19;20133;-76
2022/04/27 05:54:10;;;;;;;32.57;17.03;;;;;;;;;;7388162;19;20574;-76
2022/04/27 05:56:37;;;;;;;38.33;15.13;;;;;;;;;;7387234;19;20121;-77
2022/04/27 05:59:03;;;;;;;20.50;15.33;;;;;;;;;;7389478;19;20225;-77
2022/04/27 06:01:30;;;;;;;32.73;17.07;;;;;;;;;;7389712;19;20113;-76
2022/04/27 06:03:56;;;;;;;22.03;16.60;;;;;;;;;;7404543;19;20129;-76
2022/04/27 06:06:23;;;;;;;23.47;18.00;;;;;;;;;;7411186;19;20141;-76
2022/04/27 06:08:49;;;;;;;18.83;12.40;;;;;;;;;;7402095;19;20606;-76
2022/04/27 06:11:16;;;;;;;17.67;13.23;;;;;;;;;;7389316;19;20128;-76
2022/04/27 06:13:42;;;;;;;18.33;13.57;;;;;;;;;;7387600;19;20129;-77
2022/04/27 06:16:08;;;;;;;21.43;14.57;;;;;;;;;;7387543;19;20133;-76
2022/04/27 06:18:34;;;;;;;19.33;13.70;;;;;;;;;;7388364;19;20128;-77
2022/04/27 06:21:00;;;;;;;18.57;12.97;;;;;;;;;;7389359;19;20121;-76
2022/04/27 06:23:27;;;;;;;21.97;14.30;;;;;;;;;;7386396;19;20611;-76
2022/04/27 06:25:53;;;;;;;19.03;13.87;;;;;;;;;;7385998;19;20710;-77
2022/04/27 06:28:20;;;;;;;19.90;13.87;;;;;;;;;;7388389;19;20120;-76
2022/04/27 06:30:46;;;;;;;19.30;14.90;;;;;;;;;;7387094;19;20140;-77
2022/04/27 06:33:12;;;;;;;19.33;14.47;;;;;;;;;;7385473;19;20157;-76
2022/04/27 06:35:38;;;;;;;19.07;13.13;;;;;;;;;;7387211;19;20535;-76
2022/04/27 06:38:04;;;;;;;19.50;14.17;;;;;;;;;;7386088;19;20596;-76
2022/04/27 06:40:30;;;;;;;16.57;13.20;;;;;;;;;;7386280;19;20517;-76
2022/04/27 06:42:57;;;;;;;22.70;14.03;;;;;;;;;;7386051;19;20611;-76
2022/04/27 06:45:27;;;;;;;19.03;14.27;;;;;;;;;;7386875;19;20208;-76
2022/04/27 06:47:57;;;;;;;19.07;14.90;;;;;;;;;;7385970;19;20615;-76
2022/04/27 06:50:23;;;;;;;18.10;13.50;;;;;;;;;;7384798;19;20139;-76
2022/04/27 06:52:49;;;;;;;17.83;12.87;;;;;;;;;;7387262;19;20133;-76
2022/04/27 06:55:16;;;;;;;16.87;12.90;;;;;;;;;;7387035;19;20160;-76
2022/04/27 06:57:42;;;;;;;22.73;12.77;;;;;;;;;;7388405;19;20335;-76
2022/04/27 07:00:08;;;;;;;14.13;11.47;;;;;;;;;;7388253;19;20530;-76
2022/04/27 07:02:35;;;;;;;18.70;12.03;;;;;;;;;;7384324;19;20144;-76
2022/04/27 07:05:02;;;;;;;32.27;13.70;;;;;;;;;;7385084;19;20510;-76
2022/04/27 07:07:28;;;;;;;14.80;11.97;;;;;;;;;;7388843;19;20117;-77
2022/04/27 07:09:56;;;;;;;15.97;12.10;;;;;;;;;;7393831;19;20730;-76
2022/04/27 07:12:21;;;;;;;15.83;12.13;;;;;;;;;;7394804;19;20146;-76
2022/04/27 07:14:56;;;;;;;15.80;11.37;;;;;;;;;;7393690;19;20456;-76
2022/04/27 07:17:22;;;;;;;18.00;12.70;;;;;;;;;;7395261;19;20145;-76
2022/04/27 07:19:49;;;;;;;16.67;13.37;;;;;;;;;;7393427;19;20501;-76
2022/04/27 07:22:16;;;;;;;17.47;12.10;;;;;;;;;;7393614;19;20209;-76
2022/04/27 07:24:44;;;;;;;16.10;12.67;;;;;;;;;;7393668;19;20133;-76
2022/04/27 07:27:10;;;;;;;19.90;13.17;;;;;;;;;;7393345;19;20148;-76
2022/04/27 07:29:36;;;;;;;16.67;12.40;;;;;;;;;;7394269;19;20201;-76
2022/04/27 07:32:02;;;;;;;16.17;11.47;;;;;;;;;;7393681;19;20583;-76
2022/04/27 07:34:28;;;;;;;27.37;13.03;;;;;;;;;;7390405;19;20165;-75
2022/04/27 07:36:57;;;;;;;16.50;11.70;;;;;;;;;;7395399;19;20133;-76
2022/04/27 07:39:23;;;;;;;17.10;12.17;;;;;;;;;;7394217;19;20139;-76
2022/04/27 07:41:49;;;;;;;13.53;10.33;;;;;;;;;;7394296;19;20118;-76
2022/04/27 07:44:16;;;;;;;13.30;10.53;;;;;;;;;;7392332;19;20137;-76
2022/04/27 07:46:47;;;;;;;13.57;10.07;;;;;;;;;;7391995;19;20133;-76
2022/04/27 07:49:13;;;;;;;15.70;11.17;;;;;;;;;;7392515;19;20133;-76
2022/04/27 07:51:39;;;;;;;15.20;11.23;;;;;;;;;;7393789;19;20609;-76
2022/04/27 07:54:05;;;;;;;15.83;11.00;;;;;;;;;;7391107;19;20161;-77
2022/04/27 07:56:31;;;;;;;13.40;10.57;;;;;;;;;;7392344;19;20132;-77
2022/04/27 07:58:57;;;;;;;12.27;10.20;;;;;;;;;;7392143;19;20141;-77
2022/04/27 08:01:23;;;;;;;12.53;9.63;;;;;;;;;;7393431;19;20599;-76
2022/04/27 08:03:49;;;;;;;10.83;8.73;;;;;;;;;;7395165;19;20125;-77
2022/04/27 08:06:15;;;;;;;9.30;8.00;;;;;;;;;;7425913;19;20133;-76
2022/04/27 08:08:41;;;;;;;10.90;9.03;;;;;;;;;;7425689;19;20188;-77
2022/04/27 08:11:09;;;;;;;12.10;9.47;;;;;;;;;;7425675;19;20154;-77
2022/04/27 08:13:35;;;;;;;11.40;8.97;;;;;;;;;;7425802;19;20136;-76
2022/04/27 08:16:01;;;;;;;10.03;8.37;;;;;;;;;;7392618;19;20166;-77
2022/04/27 08:18:28;;;;;;;9.47;7.90;;;;;;;;;;7392962;19;20137;-77
2022/04/27 08:23:40;;;;;;;10.50;9.10;;;;;;;;;;7389847;19;20139;-77
2022/04/27 08:26:07;;;;;;;10.77;8.93;;;;;;;;;;7392359;19;20219;-77
2022/04/27 08:28:33;;;;;;;10.03;8.87;;;;;;;;;;7390704;19;20160;-76
2022/04/27 08:30:59;;;;;;;12.00;9.07;;;;;;;;;;7391686;19;20188;-77
2022/04/27 08:33:25;;;;;;;10.63;9.23;;;;;;;;;;7390731;19;20150;-77
2022/04/27 08:35:54;;;;;;;11.00;9.23;;;;;;;;;;7389859;19;20160;-76
2022/04/27 08:38:20;;;;;;;11.00;9.17;;;;;;;;;;7391163;19;20157;-76
2022/04/27 08:40:46;;;;;;;11.53;9.37;;;;;;;;;;7392113;19;20438;-77
2022/04/27 08:43:13;;;;;;;12.83;11.13;;;;;;;;;;7388373;19;20218;-76
2022/04/27 08:45:43;;;;;;;11.20;9.87;;;;;;;;;;7387593;19;20527;-76
2022/04/27 08:48:09;;;;;;;10.93;9.80;;;;;;;;;;7391916;19;20129;-77
2022/04/27 08:50:35;;;;;;;14.00;10.10;;;;;;;;;;7389827;19;20532;-77
2022/04/27 08:53:01;;;;;;;11.87;10.53;;;;;;;;;;7388717;19;20482;-76
2022/04/27 08:55:28;;;;;;;13.30;11.10;;;;;;;;;;7387949;19;20168;-77
2022/04/27 08:58:14;;;;;;;12.50;10.00;;;;;;;;;;7389602;19;20148;-77
2022/04/27 09:00:40;;;;;;;12.67;10.87;;;;;;;;;;7390470;19;20440;-76
2022/04/27 09:03:25;;;;;;;12.83;11.50;;;;;;;;;;7386652;19;20149;-77
2022/04/27 09:05:53;;;;;;;11.80;10.50;;;;;;;;;;7389127;19;20154;-77
2022/04/27 09:08:19;;;;;;;12.47;10.87;;;;;;;;;;7390332;19;20117;-77
2022/04/27 09:10:45;;;;;;;11.47;10.37;;;;;;;;;;7389008;19;20488;-76
2022/04/27 09:13:11;;;;;;;11.80;9.70;;;;;;;;;;7387950;19;20145;-76
2022/04/27 09:15:37;;;;;;;11.83;10.57;;;;;;;;;;7386666;19;20231;-78
2022/04/27 09:21:00;;;;;;;13.37;11.63;;;;;;;;;;7391753;19;20113;-77
2022/04/27 09:23:37;;;;;;;12.80;11.50;;;;;;;;;;7389126;19;20162;-77
2022/04/27 09:26:18;;;;;;;12.27;10.67;;;;;;;;;;7390771;19;20686;-77
2022/04/27 09:28:48;;;;;;;11.90;10.70;;;;;;;;;;7392109;19;20200;-76
2022/04/27 09:31:30;;;;;;;12.50;11.10;;;;;;;;;;7389480;19;20130;-76
2022/04/27 09:34:27;;;;;;;13.43;11.33;;;;;;;;;;7386656;19;20589;-78
2022/04/27 09:37:24;;;;;;;11.17;10.03;;;;;;;;;;7388211;19;20150;-77
2022/04/27 09:40:06;;;;;;;11.43;10.33;;;;;;;;;;7383257;19;20144;-77
2022/04/27 09:42:59;;;;;;;11.97;10.77;;;;;;;;;;7386119;19;20225;-76
2022/04/27 09:45:25;;;;;;;11.73;10.27;;;;;;;;;;7386256;19;20521;-77
2022/04/27 09:48:01;;;;;;;11.57;10.37;;;;;;;;;;7389930;19;20121;-78
2022/04/27 09:50:27;;;;;;;11.67;10.00;;;;;;;;;;7385645;19;20121;-77
2022/04/27 09:52:56;;;;;;;11.20;9.87;;;;;;;;;;7387619;19;20166;-77
2022/04/27 09:55:22;;;;;;;12.23;9.57;;;;;;;;;;7385843;19;20225;-76
2022/04/27 09:57:58;;;;;;;11.20;9.77;;;;;;;;;;7387822;19;20137;-77
2022/04/27 10:00:25;;;;;;;10.27;9.27;;;;;;;;;;7389991;19;20124;-77
2022/04/27 10:02:51;;;;;;;10.30;9.23;;;;;;;;;;7385527;19;20479;-78
2022/04/27 10:05:17;;;;;;;10.20;9.27;;;;;;;;;;7388994;19;20157;-77
2022/04/27 10:07:44;;;;;;;10.63;9.52;;;;;;;;;;7387090;19;20132;-77
2022/04/27 10:10:10;;;;;;;11.32;10.15;;;;;;;;;;7387085;19;20141;-77
2022/04/27 10:12:38;;;;;;;11.60;10.38;;;;;;;;;;7388284;19;20141;-77
2022/04/27 10:15:05;;;;;;;10.80;9.70;;;;;;;;;;7388063;19;20588;-77
2022/04/27 10:17:31;;;;;;;10.30;9.20;;;;;;;;;;7387379;19;20145;-78
2022/04/27 10:19:57;;;;;;;10.82;9.73;;;;;;;;;;7388892;19;20125;-78
2022/04/27 10:22:31;;;;;;;9.75;8.82;;;;;;;;;;7387615;19;20133;-78
2022/04/27 10:24:59;;;;;;;9.95;8.95;;;;;;;;;;7386402;19;20484;-80
2022/04/27 10:27:26;;;;;;;9.88;8.95;;;;;;;;;;7388090;19;20132;-78
2022/04/27 10:29:52;;;;;;;10.00;9.07;;;;;;;;;;7385769;19;20647;-79
2022/04/27 10:32:37;;;;;;;11.02;8.88;;;;;;;;;;7386695;19;20134;-77
2022/04/27 10:35:27;;;;;;;10.90;9.18;;;;;;;;;;7386580;19;20141;-79
2022/04/27 10:38:02;;;;;;;9.90;8.77;;;;;;;;;;7385588;19;20612;-77
2022/04/27 10:40:55;;;;;;;10.30;9.30;;;;;;;;;;7386974;19;20140;-80
2022/04/27 10:43:41;;;;;;;9.75;8.75;;;;;;;;;;7382633;19;20147;-79
2022/04/27 10:46:27;;;;;;;9.75;8.75;;;;;;;;;;7387943;19;20136;-77
2022/04/27 10:48:53;;;;;;;10.32;9.40;;;;;;;;;;7386775;19;20148;-78
2022/04/27 10:51:20;;;;;;;9.57;8.57;;;;;;;;;;7385601;19;20510;-77
2022/04/27 10:53:48;;;;;;;9.57;8.20;;;;;;;;;;7386122;19;20180;-77
2022/04/27 10:56:22;;;;;;;9.70;8.70;;;;;;;;;;7384685;19;20144;-78
2022/04/27 10:58:48;;;;;;;9.57;8.57;;;;;;;;;;7386624;19;20131;-78
2022/04/27 11:01:18;;;;;;;9.45;8.55;;;;;;;;;;7387381;19;20164;-77
2022/04/27 11:03:45;;;;;;;9.88;8.55;;;;;;;;;;7385494;19;20514;-77
2022/04/27 11:06:12;;;;;;;9.25;8.35;;;;;;;;;;7386163;19;20514;-78
2022/04/27 11:08:41;;;;;;;9.70;8.68;;;;;;;;;;7385849;19;20136;-78
2022/04/27 11:11:09;;;;;;;8.82;7.93;;;;;;;;;;7386125;19;20148;-77
2022/04/27 11:13:35;;;;;;;8.80;8.00;;;;;;;;;;7384195;19;20133;-76
2022/04/27 11:16:11;;;;;;;9.05;7.50;;;;;;;;;;7384742;19;20608;-77
2022/04/27 11:18:49;;;;;;;7.90;7.10;;;;;;;;;;7385809;19;20128;-77
2022/04/27 11:21:19;;;;;;;9.07;8.18;;;;;;;;;;7387082;19;20124;-78
2022/04/27 11:23:46;;;;;;;8.90;6.85;;;;;;;;;;7382834;19;20633;-77
2022/04/27 11:26:13;;;;;;;8.00;7.15;;;;;;;;;;7385717;19;20141;-77
2022/04/27 11:28:40;;;;;;;7.45;6.75;;;;;;;;;;7385250;19;20144;-78
2022/04/27 11:31:06;;;;;;;8.10;7.40;;;;;;;;;;7384752;19;20129;-79
2022/04/27 11:33:36;;;;;;;7.85;7.15;;;;;;;;;;7385304;19;20121;-77
2022/04/27 11:36:02;;;;;;;8.32;7.53;;;;;;;;;;7384455;19;20155;-77
2022/04/27 11:38:35;;;;;;;8.25;7.55;;;;;;;;;;7386275;19;20230;-78
2022/04/27 11:41:02;;;;;;;8.55;7.80;;;;;;;;;;7385160;19;20201;-77
2022/04/27 11:43:29;;;;;;;8.13;7.40;;;;;;;;;;7385417;19;20121;-77
2022/04/27 11:45:58;;;;;;;7.97;7.28;;;;;;;;;;7384245;19;20137;-77
2022/04/27 11:48:28;;;;;;;8.20;7.50;;;;;;;;;;7385704;19;20129;-78
2022/04/27 11:50:56;;;;;;;8.43;7.63;;;;;;;;;;7386559;19;20113;-78
2022/04/27 11:53:22;;;;;;;8.73;7.93;;;;;;;;;;7384489;19;20524;-78
2022/04/27 11:55:52;;;;;;;8.05;7.25;;;;;;;;;;7391133;19;20133;-78
2022/04/27 11:58:25;;;;;;;8.70;7.90;;;;;;;;;;7391214;19;20493;-77
2022/04/27 12:00:56;;;;;;;6.95;6.35;;;;;;;;;;7393532;19;20125;-76
2022/04/27 12:03:23;;;;;;;7.82;7.10;;;;;;;;;;7388884;19;20144;-79
2022/04/27 12:05:53;;;;;;;8.13;7.43;;;;;;;;;;7391010;19;20129;-76
2022/04/27 12:08:20;;;;;;;8.45;7.53;;;;;;;;;;7393094;19;20141;-78
2022/04/27 12:10:46;;;;;;;7.55;6.85;;;;;;;;;;7391506;19;20133;-77
2022/04/27 12:13:13;;;;;;;7.53;6.82;;;;;;;;;;7389987;19;20140;-78
2022/04/27 12:15:40;;;;;;;7.07;6.47;;;;;;;;;;7388791;19;20164;-77
2022/04/27 12:18:06;;;;;;;7.03;5.93;;;;;;;;;;7393139;19;20927;-78
2022/04/27 12:20:40;;;;;;;8.18;7.38;;;;;;;;;;7392933;19;20193;-79
2022/04/27 12:23:08;;;;;;;7.20;6.50;;;;;;;;;;7389779;19;20128;-77
2022/04/27 12:25:59;;;;;;;7.55;6.55;;;;;;;;;;7390140;19;20140;-77
2022/04/27 12:28:29;;;;;;;8.45;7.68;;;;;;;;;;7392434;19;20117;-78
2022/04/27 12:30:59;;;;;;;8.20;7.07;;;;;;;;;;7392640;19;20143;-76
2022/04/27 12:33:27;;;;;;;7.20;6.60;;;;;;;;;;7391043;19;20133;-76
2022/04/27 12:39:02;;;;;;;7.45;6.75;;;;;;;;;;7393225;19;20116;-78
2022/04/27 12:41:29;;;;;;;7.07;6.50;;;;;;;;;;7391397;19;20163;-78
2022/04/27 12:44:01;;;;;;;6.90;6.40;;;;;;;;;;7386941;19;20152;-78
2022/04/27 12:46:27;;;;;;;7.22;6.60;;;;;;;;;;7392699;19;20114;-79
2022/04/27 12:49:01;;;;;;;8.30;7.60;;;;;;;;;;7391557;19;20129;-77
2022/04/27 12:51:32;;;;;;;6.97;6.43;;;;;;;;;;7391662;19;20531;-79
2022/04/27 12:53:58;;;;;;;6.97;6.35;;;;;;;;;;7390035;19;20139;-78
2022/04/27 12:56:31;;;;;;;7.10;6.30;;;;;;;;;;7387624;19;20148;-78
2022/04/27 12:59:13;;;;;;;7.22;6.63;;;;;;;;;;7389342;19;20144;-77
2022/04/27 13:01:40;;;;;;;6.38;5.82;;;;;;;;;;7391736;19;20588;-77
2022/04/27 13:04:06;;;;;;;6.93;6.40;;;;;;;;;;7388047;19;20635;-76
2022/04/27 13:06:33;;;;;;;8.57;6.60;;;;;;;;;;7391232;19;20117;-77
2022/04/27 13:11:56;;;;;;;6.68;6.07;;;;;;;;;;7392648;19;20598;-76
2022/04/27 13:14:22;;;;;;;6.90;6.20;;;;;;;;;;7386928;19;20931;-76
2022/04/27 13:16:48;;;;;;;7.25;5.82;;;;;;;;;;7391311;19;20217;-76
2022/04/27 13:19:14;;;;;;;6.43;5.88;;;;;;;;;;7389042;19;20129;-76
2022/04/27 13:21:40;;;;;;;6.50;5.90;;;;;;;;;;7390571;19;20145;-77
2022/04/27 13:24:06;;;;;;;6.22;5.72;;;;;;;;;;7387779;19;20129;-77
2022/04/27 13:26:34;;;;;;;6.70;6.05;;;;;;;;;;7389768;19;20159;-77
2022/04/27 13:29:00;;;;;;;6.78;6.18;;;;;;;;;;7388840;19;20204;-77
2022/04/27 13:31:27;;;;;;;8.93;8.10;;;;;;;;;;7387989;19;20166;-77
2022/04/27 13:33:53;;;;;;;18.90;17.20;;;;;;;;;;7388043;19;20154;-78
2022/04/27 13:36:19;;;;;;;8.10;7.15;;;;;;;;;;7387672;19;20140;-78
2022/04/27 13:38:46;;;;;;;10.85;5.78;;;;;;;;;;7390402;19;20121;-77
2022/04/27 13:41:12;;;;;;;9.02;8.30;;;;;;;;;;7390415;19;20132;-77
2022/04/27 13:43:39;;;;;;;6.90;6.20;;;;;;;;;;7387795;19;20184;-77
2022/04/27 13:46:07;;;;;;;6.88;6.22;;;;;;;;;;7390026;19;20494;-77
2022/04/27 13:48:33;;;;;;;6.32;5.72;;;;;;;;;;7388859;19;20436;-77
2022/04/27 13:51:00;;;;;;;6.75;6.20;;;;;;;;;;7388321;19;20608;-77
2022/04/27 13:53:27;;;;;;;8.02;7.32;;;;;;;;;;7388816;19;20239;-77
2022/04/27 13:55:53;;;;;;;6.80;5.80;;;;;;;;;;7386768;19;20156;-77
2022/04/27 13:58:19;;;;;;;6.38;5.88;;;;;;;;;;7390326;19;20133;-76
2022/04/27 14:00:45;;;;;;;6.07;5.45;;;;;;;;;;7390214;19;20219;-76
2022/04/27 14:03:11;;;;;;;6.55;6.05;;;;;;;;;;7386322;19;20129;-77
2022/04/27 14:05:38;;;;;;;6.72;5.85;;;;;;;;;;7388266;19;20129;-76
2022/04/27 14:08:04;;;;;;;6.32;5.60;;;;;;;;;;7389618;19;20133;-77
2022/04/27 14:10:30;;;;;;;6.45;5.82;;;;;;;;;;7389167;19;20120;-76
2022/04/27 14:13:13;;;;;;;5.15;4.70;;;;;;;;;;7388699;19;20197;-76
2022/04/27 14:15:40;;;;;;;5.97;5.50;;;;;;;;;;7415104;19;20165;-77
2022/04/27 14:18:15;;;;;;;6.05;5.55;;;;;;;;;;7421200;19;20149;-77
2022/04/27 14:20:45;;;;;;;5.35;4.93;;;;;;;;;;7423375;19;20109;-77
2022/04/27 14:23:12;;;;;;;7.47;6.88;;;;;;;;;;7420740;19;20125;-77
2022/04/27 14:25:38;;;;;;;6.22;5.72;;;;;;;;;;7395481;19;20130;-77
2022/04/27 14:28:06;;;;;;;5.70;5.20;;;;;;;;;;7388247;19;20121;-76
2022/04/27 14:30:33;;;;;;;6.65;6.13;;;;;;;;;;7388116;19;20113;-76
2022/04/27 14:32:59;;;;;;;5.60;5.10;;;;;;;;;;7387233;19;20180;-76
2022/04/27 14:35:25;;;;;;;7.03;5.40;;;;;;;;;;7384736;19;20181;-76
2022/04/27 14:37:51;;;;;;;5.40;5.00;;;;;;;;;;7386663;19;20181;-77
2022/04/27 14:40:18;;;;;;;6.07;5.47;;;;;;;;;;7387750;19;20124;-77
2022/04/27 14:42:45;;;;;;;10.57;9.77;;;;;;;;;;7384679;19;20129;-76
2022/04/27 14:45:11;;;;;;;6.53;5.93;;;;;;;;;;7384955;19;20652;-76
2022/04/27 14:47:38;;;;;;;5.03;4.63;;;;;;;;;;7387915;19;20121;-77
2022/04/27 14:50:05;;;;;;;9.60;8.70;;;;;;;;;;7385506;19;20132;-76
2022/04/27 14:52:31;;;;;;;13.45;12.10;;;;;;;;;;7384601;19;20480;-77
2022/04/27 14:54:59;;;;;;;13.77;12.35;;;;;;;;;;7384676;19;20160;-77